Mehama, Oregon
Current Conditions -  °F | °C
As of 12:56 AM on Wednesday 26 Nov 2014 (Local Time) from KSLE Reporting Station
Overcast Overcast  
Wind Chill: 57°   Ceiling: 5000
Heat Index: 57°   Visibility: 10mi
Dew Point: 51°   Wind: 9mph
Humidity: 81%   Direction: 200°SSW
Pressure: 30.28"   Gusts: NA
Location:  44.79°N, 122.62°W
Report Text: KSLE 260856Z AUTO 20008KT 10SM OVC050 14/11 A3028 RMK AO2 SLP254 T01390106 56005 $
Loading
Personal Weather Stations






























Interactive Weather Map New forecast layout! Learn more

10-Day Weather Forecast

Advertisements
Track Severe Weather on mobile